FSTFORT STOCKTON-PECOS COUNTY
METARs for airports near FST, sorted by distance:
N 0 nm 3011' KFST 172253Z 09013G23KT 10SM CLR 37/11 A3000
NW 41 nm 2613' KPEQ 172255Z 08010G15KT 10SM CLR 38/08 A2997
N 53 nm 2821' KINK 172253Z 12011G21KT FEW110 38/08 A2998
SW 65 nm 4848' KMRF 091656Z VRB03KT 10SM FEW050 28/14 A3023
NE 66 nm 3003' KODO 172253Z 10023G32KT 6SM HZ BKN013 BKN110 31/17 A3007
NE 71 nm 2872' KMAF 172253Z 09022G32KT 9SM BLDU FEW011 FEW100 31/17 A3006
NE 79 nm 2805' KMDD 172255Z 07017G24KT 10SM CLR 28/16 A3007
E 88 nm 2376' KOZA 172255Z 14005KT 10SM CLR 36/10 A3002
W 96 nm 3956' KVHN 172255Z 06006G18KT 10SM CLR 36/09 A3008
TAFs for airports near FST, sorted by distance:
N 0 nm 3011' KFST KFST 171727Z 1718/1818 12011KT P6SM FEW250
  FM181200 08012KT P6SM SCT250
NW 41 nm 2613' KPEQ KPEQ 171727Z 1718/1818 10011KT P6SM SKC
  FM180500 07011KT P6SM BKN250
N 53 nm 2821' KINK KINK 171727Z 1718/1818 12011KT P6SM SKC
  FM180300 09011KT P6SM SCT100
NE 71 nm 2872' KMAF KMAF 172207Z 1722/1818 09013KT P6SM SCT080 SCT250
  TEMPO 1722/1724 09025G35KT 2SM BLDU

Shortcut to this page: http://wxbay.com.

Data may contain errors.